meum est propositum in taberna mori  **

METAR

Ronaldsway Weather

EGNS 241220Z 25010KT 9999 FEW025 08/01 Q1016 NOSIG

 

TAF EGNS 270500Z 2706/2718 28018KT 9999 FEW015 BKN040

 

 

I know some visitors found the previous airfield selection useful but this website has been updated to use a WordPress framework and the previous version is not compatible with either the latest version of  PHP or WordPress itself. This plugin is under development and airfield selection may become a feature in the future. In the meantime if anyone has a locator that they use regularly you can email me and request its addition here.

www.iom.org © James Family